sensor_id;sensor_type;location;lat;lon;timestamp;temperature;humidity
12887;DHT22;6511;49.746;6.094;2023-04-24T00:01:13;8.90;99.90
12887;DHT22;6511;49.746;6.094;2023-04-24T00:03:39;8.90;99.90
12887;DHT22;6511;49.746;6.094;2023-04-24T00:06:05;8.80;99.90
12887;DHT22;6511;49.746;6.094;2023-04-24T00:08:32;8.80;99.90
12887;DHT22;6511;49.746;6.094;2023-04-24T00:10:57;8.80;99.90
12887;DHT22;6511;49.746;6.094;2023-04-24T00:13:23;8.80;99.90
12887;DHT22;6511;49.746;6.094;2023-04-24T00:15:48;8.80;99.90
12887;DHT22;6511;49.746;6.094;2023-04-24T00:18:14;8.80;99.90
12887;DHT22;6511;49.746;6.094;2023-04-24T00:20:39;8.80;99.90
12887;DHT22;6511;49.746;6.094;2023-04-24T00:23:05;8.80;99.90
12887;DHT22;6511;49.746;6.094;2023-04-24T00:25:30;8.80;99.90
12887;DHT22;6511;49.746;6.094;2023-04-24T00:27:56;8.70;99.90
12887;DHT22;6511;49.746;6.094;2023-04-24T00:30:21;8.70;99.90
12887;DHT22;6511;49.746;6.094;2023-04-24T00:32:47;8.70;99.90
12887;DHT22;6511;49.746;6.094;2023-04-24T00:35:12;8.70;99.90
12887;DHT22;6511;49.746;6.094;2023-04-24T00:37:38;8.70;99.90
12887;DHT22;6511;49.746;6.094;2023-04-24T00:40:03;8.60;99.90
12887;DHT22;6511;49.746;6.094;2023-04-24T00:42:29;8.60;99.90
12887;DHT22;6511;49.746;6.094;2023-04-24T00:44:55;8.60;99.90
12887;DHT22;6511;49.746;6.094;2023-04-24T00:47:21;8.60;99.90
12887;DHT22;6511;49.746;6.094;2023-04-24T00:49:47;8.60;99.90
12887;DHT22;6511;49.746;6.094;2023-04-24T00:52:12;8.50;99.90
12887;DHT22;6511;49.746;6.094;2023-04-24T00:54:46;8.50;99.90
12887;DHT22;6511;49.746;6.094;2023-04-24T00:57:12;8.40;99.90
12887;DHT22;6511;49.746;6.094;2023-04-24T00:59:38;8.30;99.90
12887;DHT22;6511;49.746;6.094;2023-04-24T01:02:04;8.20;99.90
12887;DHT22;6511;49.746;6.094;2023-04-24T01:04:30;8.20;99.90
12887;DHT22;6511;49.746;6.094;2023-04-24T01:06:56;8.10;99.90
12887;DHT22;6511;49.746;6.094;2023-04-24T01:09:23;8.10;99.90
12887;DHT22;6511;49.746;6.094;2023-04-24T01:11:49;7.90;99.90
12887;DHT22;6511;49.746;6.094;2023-04-24T01:14:14;7.80;99.90
12887;DHT22;6511;49.746;6.094;2023-04-24T01:16:40;7.80;99.90
12887;DHT22;6511;49.746;6.094;2023-04-24T01:19:06;7.70;99.90
12887;DHT22;6511;49.746;6.094;2023-04-24T01:21:33;7.70;99.90
12887;DHT22;6511;49.746;6.094;2023-04-24T01:24:00;7.60;99.90
12887;DHT22;6511;49.746;6.094;2023-04-24T01:26:25;7.50;99.90
12887;DHT22;6511;49.746;6.094;2023-04-24T01:28:51;7.50;99.90
12887;DHT22;6511;49.746;6.094;2023-04-24T01:31:17;7.40;99.90
12887;DHT22;6511;49.746;6.094;2023-04-24T01:33:43;7.30;99.90
12887;DHT22;6511;49.746;6.094;2023-04-24T01:36:09;7.30;99.90
12887;DHT22;6511;49.746;6.094;2023-04-24T01:38:35;7.20;99.90
12887;DHT22;6511;49.746;6.094;2023-04-24T01:41:01;7.20;99.90
12887;DHT22;6511;49.746;6.094;2023-04-24T01:43:26;7.20;99.90
12887;DHT22;6511;49.746;6.094;2023-04-24T01:45:52;7.10;99.90
12887;DHT22;6511;49.746;6.094;2023-04-24T01:48:17;7.10;99.90
12887;DHT22;6511;49.746;6.094;2023-04-24T01:50:43;7.10;99.90
12887;DHT22;6511;49.746;6.094;2023-04-24T01:53:08;7.00;99.90
12887;DHT22;6511;49.746;6.094;2023-04-24T01:55:34;7.00;99.90
12887;DHT22;6511;49.746;6.094;2023-04-24T01:57:59;7.00;99.90
12887;DHT22;6511;49.746;6.094;2023-04-24T02:00:25;6.90;99.90
12887;DHT22;6511;49.746;6.094;2023-04-24T02:02:51;6.80;99.90
12887;DHT22;6511;49.746;6.094;2023-04-24T02:05:17;6.80;99.90
12887;DHT22;6511;49.746;6.094;2023-04-24T02:07:42;6.80;99.90
12887;DHT22;6511;49.746;6.094;2023-04-24T02:10:08;6.80;99.90
12887;DHT22;6511;49.746;6.094;2023-04-24T02:12:33;6.80;99.90
12887;DHT22;6511;49.746;6.094;2023-04-24T02:14:59;6.80;99.90
12887;DHT22;6511;49.746;6.094;2023-04-24T02:17:24;6.80;99.90
12887;DHT22;6511;49.746;6.094;2023-04-24T02:19:50;6.80;99.90
12887;DHT22;6511;49.746;6.094;2023-04-24T02:22:16;6.70;99.90
12887;DHT22;6511;49.746;6.094;2023-04-24T02:24:41;6.80;99.90
12887;DHT22;6511;49.746;6.094;2023-04-24T02:27:07;6.70;99.90
12887;DHT22;6511;49.746;6.094;2023-04-24T02:29:32;6.60;99.90
12887;DHT22;6511;49.746;6.094;2023-04-24T02:31:58;6.70;99.90
12887;DHT22;6511;49.746;6.094;2023-04-24T02:34:23;6.80;99.90
12887;DHT22;6511;49.746;6.094;2023-04-24T02:36:49;6.80;99.90
12887;DHT22;6511;49.746;6.094;2023-04-24T02:39:14;6.90;99.90
12887;DHT22;6511;49.746;6.094;2023-04-24T02:41:42;6.90;99.90
12887;DHT22;6511;49.746;6.094;2023-04-24T02:44:07;6.90;99.90
12887;DHT22;6511;49.746;6.094;2023-04-24T02:46:33;6.90;99.90
12887;DHT22;6511;49.746;6.094;2023-04-24T02:48:58;6.80;99.90
12887;DHT22;6511;49.746;6.094;2023-04-24T02:51:24;6.90;99.90
12887;DHT22;6511;49.746;6.094;2023-04-24T02:53:50;6.90;99.90
12887;DHT22;6511;49.746;6.094;2023-04-24T02:56:15;7.00;99.90
12887;DHT22;6511;49.746;6.094;2023-04-24T02:58:41;6.90;99.90
12887;DHT22;6511;49.746;6.094;2023-04-24T03:01:07;7.00;99.90
12887;DHT22;6511;49.746;6.094;2023-04-24T03:03:33;7.00;99.90
12887;DHT22;6511;49.746;6.094;2023-04-24T03:05:58;7.10;99.90
12887;DHT22;6511;49.746;6.094;2023-04-24T03:08:24;7.20;99.90
12887;DHT22;6511;49.746;6.094;2023-04-24T03:10:49;7.10;99.90
12887;DHT22;6511;49.746;6.094;2023-04-24T03:13:15;7.10;99.90
12887;DHT22;6511;49.746;6.094;2023-04-24T03:15:41;7.00;99.90
12887;DHT22;6511;49.746;6.094;2023-04-24T03:18:06;7.10;99.90
12887;DHT22;6511;49.746;6.094;2023-04-24T03:20:31;7.20;99.90
12887;DHT22;6511;49.746;6.094;2023-04-24T03:22:57;7.20;99.90
12887;DHT22;6511;49.746;6.094;2023-04-24T03:25:22;7.20;99.90
12887;DHT22;6511;49.746;6.094;2023-04-24T03:27:48;7.20;99.90
12887;DHT22;6511;49.746;6.094;2023-04-24T03:30:13;7.20;99.90
12887;DHT22;6511;49.746;6.094;2023-04-24T03:32:39;7.30;99.90
12887;DHT22;6511;49.746;6.094;2023-04-24T03:35:06;7.30;99.90
12887;DHT22;6511;49.746;6.094;2023-04-24T03:37:32;7.30;99.90
12887;DHT22;6511;49.746;6.094;2023-04-24T03:39:57;7.30;99.90
12887;DHT22;6511;49.746;6.094;2023-04-24T03:42:23;7.30;99.90
12887;DHT22;6511;49.746;6.094;2023-04-24T03:44:48;7.30;99.90
12887;DHT22;6511;49.746;6.094;2023-04-24T03:47:14;7.30;99.90
12887;DHT22;6511;49.746;6.094;2023-04-24T03:49:40;7.40;99.90
12887;DHT22;6511;49.746;6.094;2023-04-24T03:52:05;7.30;99.90
12887;DHT22;6511;49.746;6.094;2023-04-24T03:54:31;7.30;99.90
12887;DHT22;6511;49.746;6.094;2023-04-24T03:56:56;7.30;99.90
12887;DHT22;6511;49.746;6.094;2023-04-24T03:59:22;7.20;99.90
12887;DHT22;6511;49.746;6.094;2023-04-24T04:01:47;7.10;99.90
12887;DHT22;6511;49.746;6.094;2023-04-24T04:04:13;7.10;99.90
12887;DHT22;6511;49.746;6.094;2023-04-24T04:06:38;7.10;99.90
12887;DHT22;6511;49.746;6.094;2023-04-24T04:09:04;7.10;99.90
12887;DHT22;6511;49.746;6.094;2023-04-24T04:11:30;7.10;99.90
12887;DHT22;6511;49.746;6.094;2023-04-24T04:13:55;7.10;99.90
12887;DHT22;6511;49.746;6.094;2023-04-24T04:16:22;7.10;99.90
12887;DHT22;6511;49.746;6.094;2023-04-24T04:18:47;7.10;99.90
12887;DHT22;6511;49.746;6.094;2023-04-24T04:21:13;7.10;99.90
12887;DHT22;6511;49.746;6.094;2023-04-24T04:23:38;7.10;99.90
12887;DHT22;6511;49.746;6.094;2023-04-24T04:26:05;7.10;99.90
12887;DHT22;6511;49.746;6.094;2023-04-24T04:28:31;7.00;99.90
12887;DHT22;6511;49.746;6.094;2023-04-24T04:30:57;6.90;99.90
12887;DHT22;6511;49.746;6.094;2023-04-24T04:33:25;6.90;99.90
12887;DHT22;6511;49.746;6.094;2023-04-24T04:35:51;7.00;99.90
12887;DHT22;6511;49.746;6.094;2023-04-24T04:38:22;7.00;99.90
12887;DHT22;6511;49.746;6.094;2023-04-24T04:40:47;7.10;99.90
12887;DHT22;6511;49.746;6.094;2023-04-24T04:43:13;7.00;99.90
12887;DHT22;6511;49.746;6.094;2023-04-24T04:45:40;7.00;99.90
12887;DHT22;6511;49.746;6.094;2023-04-24T04:48:08;7.00;99.90
12887;DHT22;6511;49.746;6.094;2023-04-24T04:50:34;7.10;99.90
12887;DHT22;6511;49.746;6.094;2023-04-24T04:53:00;7.10;99.90
12887;DHT22;6511;49.746;6.094;2023-04-24T04:55:25;7.10;99.90
12887;DHT22;6511;49.746;6.094;2023-04-24T04:57:51;7.20;99.90
12887;DHT22;6511;49.746;6.094;2023-04-24T05:00:17;7.10;99.90
12887;DHT22;6511;49.746;6.094;2023-04-24T05:02:42;7.20;99.90
12887;DHT22;6511;49.746;6.094;2023-04-24T05:05:08;7.20;99.90
12887;DHT22;6511;49.746;6.094;2023-04-24T05:07:34;7.20;99.90
12887;DHT22;6511;49.746;6.094;2023-04-24T05:09:59;7.20;99.90
12887;DHT22;6511;49.746;6.094;2023-04-24T05:12:25;7.20;99.90
12887;DHT22;6511;49.746;6.094;2023-04-24T05:14:50;7.30;99.90
12887;DHT22;6511;49.746;6.094;2023-04-24T05:17:16;7.20;99.90
12887;DHT22;6511;49.746;6.094;2023-04-24T05:19:41;7.20;99.90
12887;DHT22;6511;49.746;6.094;2023-04-24T05:22:07;7.30;99.90
12887;DHT22;6511;49.746;6.094;2023-04-24T05:24:36;7.40;99.90
12887;DHT22;6511;49.746;6.094;2023-04-24T05:27:02;7.30;99.90
12887;DHT22;6511;49.746;6.094;2023-04-24T05:29:27;7.30;99.90
12887;DHT22;6511;49.746;6.094;2023-04-24T05:31:53;7.30;99.90
12887;DHT22;6511;49.746;6.094;2023-04-24T05:34:19;7.30;99.90
12887;DHT22;6511;49.746;6.094;2023-04-24T05:36:44;7.30;99.90
12887;DHT22;6511;49.746;6.094;2023-04-24T05:39:10;7.30;99.90
12887;DHT22;6511;49.746;6.094;2023-04-24T05:41:35;7.30;99.90
12887;DHT22;6511;49.746;6.094;2023-04-24T05:44:01;7.30;99.90
12887;DHT22;6511;49.746;6.094;2023-04-24T05:46:26;7.40;99.90
12887;DHT22;6511;49.746;6.094;2023-04-24T05:48:52;7.30;99.90
12887;DHT22;6511;49.746;6.094;2023-04-24T05:51:17;7.30;99.90
12887;DHT22;6511;49.746;6.094;2023-04-24T05:53:42;7.20;99.90
12887;DHT22;6511;49.746;6.094;2023-04-24T05:56:08;7.20;99.90
12887;DHT22;6511;49.746;6.094;2023-04-24T05:58:33;7.20;99.90
12887;DHT22;6511;49.746;6.094;2023-04-24T06:00:59;7.30;99.90
12887;DHT22;6511;49.746;6.094;2023-04-24T06:03:26;7.30;99.90
12887;DHT22;6511;49.746;6.094;2023-04-24T06:05:52;7.40;99.90
12887;DHT22;6511;49.746;6.094;2023-04-24T06:08:18;7.60;99.90
12887;DHT22;6511;49.746;6.094;2023-04-24T06:10:44;7.60;99.90
12887;DHT22;6511;49.746;6.094;2023-04-24T06:13:09;7.70;99.90
12887;DHT22;6511;49.746;6.094;2023-04-24T06:15:35;7.80;99.90
12887;DHT22;6511;49.746;6.094;2023-04-24T06:18:00;7.90;99.90
12887;DHT22;6511;49.746;6.094;2023-04-24T06:20:26;7.90;99.90
12887;DHT22;6511;49.746;6.094;2023-04-24T06:22:51;7.90;99.90
12887;DHT22;6511;49.746;6.094;2023-04-24T06:25:17;7.90;99.90
12887;DHT22;6511;49.746;6.094;2023-04-24T06:27:43;7.80;99.90
12887;DHT22;6511;49.746;6.094;2023-04-24T06:30:08;7.90;99.90
12887;DHT22;6511;49.746;6.094;2023-04-24T06:32:34;7.90;99.90
12887;DHT22;6511;49.746;6.094;2023-04-24T06:35:00;7.80;99.90
12887;DHT22;6511;49.746;6.094;2023-04-24T06:37:25;7.70;99.90
12887;DHT22;6511;49.746;6.094;2023-04-24T06:39:51;7.80;99.90
12887;DHT22;6511;49.746;6.094;2023-04-24T06:42:16;7.70;99.90
12887;DHT22;6511;49.746;6.094;2023-04-24T06:44:42;7.70;99.90
12887;DHT22;6511;49.746;6.094;2023-04-24T06:47:08;7.70;99.90
12887;DHT22;6511;49.746;6.094;2023-04-24T06:49:37;7.80;99.90
12887;DHT22;6511;49.746;6.094;2023-04-24T06:52:03;7.80;99.90
12887;DHT22;6511;49.746;6.094;2023-04-24T06:54:28;7.80;99.90
12887;DHT22;6511;49.746;6.094;2023-04-24T06:56:54;7.70;99.90
12887;DHT22;6511;49.746;6.094;2023-04-24T06:59:20;7.70;99.90
12887;DHT22;6511;49.746;6.094;2023-04-24T07:01:46;7.70;99.90
12887;DHT22;6511;49.746;6.094;2023-04-24T07:04:11;7.80;99.90
12887;DHT22;6511;49.746;6.094;2023-04-24T07:06:38;7.80;99.90
12887;DHT22;6511;49.746;6.094;2023-04-24T07:09:04;7.70;99.90
12887;DHT22;6511;49.746;6.094;2023-04-24T07:11:30;7.60;99.90
12887;DHT22;6511;49.746;6.094;2023-04-24T07:13:55;7.60;99.90
12887;DHT22;6511;49.746;6.094;2023-04-24T07:16:21;7.70;99.90
12887;DHT22;6511;49.746;6.094;2023-04-24T07:18:46;7.70;99.90
12887;DHT22;6511;49.746;6.094;2023-04-24T07:21:12;7.70;99.90
12887;DHT22;6511;49.746;6.094;2023-04-24T07:23:37;7.60;99.90
12887;DHT22;6511;49.746;6.094;2023-04-24T07:26:03;7.70;99.90
12887;DHT22;6511;49.746;6.094;2023-04-24T07:28:28;7.90;99.90
12887;DHT22;6511;49.746;6.094;2023-04-24T07:30:56;7.90;99.90
12887;DHT22;6511;49.746;6.094;2023-04-24T07:33:22;7.90;99.90
12887;DHT22;6511;49.746;6.094;2023-04-24T07:35:48;7.70;99.90
12887;DHT22;6511;49.746;6.094;2023-04-24T07:38:13;7.80;99.90
12887;DHT22;6511;49.746;6.094;2023-04-24T07:40:39;7.90;99.90
12887;DHT22;6511;49.746;6.094;2023-04-24T07:43:04;7.90;99.90
12887;DHT22;6511;49.746;6.094;2023-04-24T07:45:30;8.00;99.90
12887;DHT22;6511;49.746;6.094;2023-04-24T07:47:56;8.10;99.90
12887;DHT22;6511;49.746;6.094;2023-04-24T07:50:22;8.10;99.90
12887;DHT22;6511;49.746;6.094;2023-04-24T07:52:47;8.20;99.90
12887;DHT22;6511;49.746;6.094;2023-04-24T07:55:13;8.20;99.90
12887;DHT22;6511;49.746;6.094;2023-04-24T07:57:38;8.30;99.90
12887;DHT22;6511;49.746;6.094;2023-04-24T08:00:04;8.30;99.90
12887;DHT22;6511;49.746;6.094;2023-04-24T08:02:30;8.30;99.90
12887;DHT22;6511;49.746;6.094;2023-04-24T08:04:56;8.20;99.90
12887;DHT22;6511;49.746;6.094;2023-04-24T08:07:23;8.30;99.90
12887;DHT22;6511;49.746;6.094;2023-04-24T08:09:48;8.30;99.90
12887;DHT22;6511;49.746;6.094;2023-04-24T08:12:14;8.40;99.90
12887;DHT22;6511;49.746;6.094;2023-04-24T08:14:39;8.50;99.90
12887;DHT22;6511;49.746;6.094;2023-04-24T08:17:05;8.50;99.90
12887;DHT22;6511;49.746;6.094;2023-04-24T08:19:31;8.30;99.90
12887;DHT22;6511;49.746;6.094;2023-04-24T08:21:56;8.30;99.90
12887;DHT22;6511;49.746;6.094;2023-04-24T08:24:22;8.20;99.90
12887;DHT22;6511;49.746;6.094;2023-04-24T08:26:47;8.20;99.90
12887;DHT22;6511;49.746;6.094;2023-04-24T08:29:15;8.30;99.90
12887;DHT22;6511;49.746;6.094;2023-04-24T08:31:41;8.40;99.90
12887;DHT22;6511;49.746;6.094;2023-04-24T08:34:06;8.60;99.90
12887;DHT22;6511;49.746;6.094;2023-04-24T08:36:32;8.60;99.90
12887;DHT22;6511;49.746;6.094;2023-04-24T08:38:57;8.80;99.90
12887;DHT22;6511;49.746;6.094;2023-04-24T08:41:23;9.10;99.90
12887;DHT22;6511;49.746;6.094;2023-04-24T08:43:51;9.30;99.90
12887;DHT22;6511;49.746;6.094;2023-04-24T08:46:16;9.20;99.90
12887;DHT22;6511;49.746;6.094;2023-04-24T08:48:43;9.70;99.90
12887;DHT22;6511;49.746;6.094;2023-04-24T08:51:09;9.50;99.90
12887;DHT22;6511;49.746;6.094;2023-04-24T08:53:35;9.50;99.90
12887;DHT22;6511;49.746;6.094;2023-04-24T08:56:01;9.50;99.90
12887;DHT22;6511;49.746;6.094;2023-04-24T08:58:27;9.60;99.90
12887;DHT22;6511;49.746;6.094;2023-04-24T09:00:56;9.50;99.90
12887;DHT22;6511;49.746;6.094;2023-04-24T09:03:22;9.70;99.90
12887;DHT22;6511;49.746;6.094;2023-04-24T09:05:47;9.90;99.90
12887;DHT22;6511;49.746;6.094;2023-04-24T09:08:14;9.60;99.90
12887;DHT22;6511;49.746;6.094;2023-04-24T09:10:41;9.60;99.90
12887;DHT22;6511;49.746;6.094;2023-04-24T09:13:06;9.60;99.90
12887;DHT22;6511;49.746;6.094;2023-04-24T09:15:34;9.50;99.90
12887;DHT22;6511;49.746;6.094;2023-04-24T09:18:00;9.40;99.90
12887;DHT22;6511;49.746;6.094;2023-04-24T09:20:26;9.80;99.90
12887;DHT22;6511;49.746;6.094;2023-04-24T09:22:55;10.10;99.90
12887;DHT22;6511;49.746;6.094;2023-04-24T09:25:21;9.90;99.90
12887;DHT22;6511;49.746;6.094;2023-04-24T09:27:47;9.80;99.90
12887;DHT22;6511;49.746;6.094;2023-04-24T09:30:13;9.80;99.90
12887;DHT22;6511;49.746;6.094;2023-04-24T09:32:38;10.00;99.90
12887;DHT22;6511;49.746;6.094;2023-04-24T09:35:09;10.10;99.90
12887;DHT22;6511;49.746;6.094;2023-04-24T09:37:36;10.00;99.90
12887;DHT22;6511;49.746;6.094;2023-04-24T09:40:12;9.80;99.90
12887;DHT22;6511;49.746;6.094;2023-04-24T09:42:37;9.70;99.90
12887;DHT22;6511;49.746;6.094;2023-04-24T09:45:04;9.80;99.90
12887;DHT22;6511;49.746;6.094;2023-04-24T09:47:36;9.70;99.90
12887;DHT22;6511;49.746;6.094;2023-04-24T09:50:08;10.00;99.90
12887;DHT22;6511;49.746;6.094;2023-04-24T09:52:34;10.10;99.90
12887;DHT22;6511;49.746;6.094;2023-04-24T09:55:00;10.30;99.90
12887;DHT22;6511;49.746;6.094;2023-04-24T09:57:25;10.40;99.90
12887;DHT22;6511;49.746;6.094;2023-04-24T09:59:53;9.90;99.90
12887;DHT22;6511;49.746;6.094;2023-04-24T10:02:19;10.10;99.90
12887;DHT22;6511;49.746;6.094;2023-04-24T10:04:53;10.70;99.90
12887;DHT22;6511;49.746;6.094;2023-04-24T10:07:20;10.80;99.90
12887;DHT22;6511;49.746;6.094;2023-04-24T10:09:46;11.20;99.90
12887;DHT22;6511;49.746;6.094;2023-04-24T10:12:11;11.20;99.90
12887;DHT22;6511;49.746;6.094;2023-04-24T10:14:37;11.00;99.90
12887;DHT22;6511;49.746;6.094;2023-04-24T10:17:03;10.80;99.90
12887;DHT22;6511;49.746;6.094;2023-04-24T10:19:29;10.70;99.90
12887;DHT22;6511;49.746;6.094;2023-04-24T10:21:55;10.40;99.90
12887;DHT22;6511;49.746;6.094;2023-04-24T10:24:21;10.10;99.90
12887;DHT22;6511;49.746;6.094;2023-04-24T10:26:47;10.20;99.90
12887;DHT22;6511;49.746;6.094;2023-04-24T10:29:16;10.10;99.90
12887;DHT22;6511;49.746;6.094;2023-04-24T10:31:42;10.20;99.90
12887;DHT22;6511;49.746;6.094;2023-04-24T10:34:10;10.60;99.90
12887;DHT22;6511;49.746;6.094;2023-04-24T10:36:38;10.60;99.90
12887;DHT22;6511;49.746;6.094;2023-04-24T10:39:06;10.40;99.90
12887;DHT22;6511;49.746;6.094;2023-04-24T10:41:33;10.30;99.90
12887;DHT22;6511;49.746;6.094;2023-04-24T10:46:35;10.50;99.90
12887;DHT22;6511;49.746;6.094;2023-04-24T10:49:05;10.70;99.90
12887;DHT22;6511;49.746;6.094;2023-04-24T10:51:52;10.70;99.90
12887;DHT22;6511;49.746;6.094;2023-04-24T10:56:50;10.90;99.90
12887;DHT22;6511;49.746;6.094;2023-04-24T10:59:26;10.90;99.90
12887;DHT22;6511;49.746;6.094;2023-04-24T11:01:53;11.20;99.90
12887;DHT22;6511;49.746;6.094;2023-04-24T11:04:28;11.50;99.90
12887;DHT22;6511;49.746;6.094;2023-04-24T11:06:54;11.70;99.90
12887;DHT22;6511;49.746;6.094;2023-04-24T11:09:20;11.80;99.90
12887;DHT22;6511;49.746;6.094;2023-04-24T11:11:46;11.70;99.90
12887;DHT22;6511;49.746;6.094;2023-04-24T11:14:15;11.10;99.90
12887;DHT22;6511;49.746;6.094;2023-04-24T11:21:32;11.00;99.90
12887;DHT22;6511;49.746;6.094;2023-04-24T11:24:25;11.00;99.90
12887;DHT22;6511;49.746;6.094;2023-04-24T11:26:51;10.90;99.90
12887;DHT22;6511;49.746;6.094;2023-04-24T11:29:16;10.80;99.90
12887;DHT22;6511;49.746;6.094;2023-04-24T11:31:44;10.60;99.90
12887;DHT22;6511;49.746;6.094;2023-04-24T11:34:15;10.50;99.90
12887;DHT22;6511;49.746;6.094;2023-04-24T11:36:45;10.50;99.90
12887;DHT22;6511;49.746;6.094;2023-04-24T11:39:11;10.70;99.90
12887;DHT22;6511;49.746;6.094;2023-04-24T11:41:39;11.10;99.90
12887;DHT22;6511;49.746;6.094;2023-04-24T11:44:06;11.50;99.90
12887;DHT22;6511;49.746;6.094;2023-04-24T11:46:32;11.70;99.90
12887;DHT22;6511;49.746;6.094;2023-04-24T11:48:58;11.50;99.90
12887;DHT22;6511;49.746;6.094;2023-04-24T11:51:24;11.70;99.90
12887;DHT22;6511;49.746;6.094;2023-04-24T11:53:56;11.90;99.90
12887;DHT22;6511;49.746;6.094;2023-04-24T11:56:22;11.50;99.90
12887;DHT22;6511;49.746;6.094;2023-04-24T11:58:48;11.50;99.90
12887;DHT22;6511;49.746;6.094;2023-04-24T12:01:13;11.30;99.90
12887;DHT22;6511;49.746;6.094;2023-04-24T12:03:39;11.50;99.90
12887;DHT22;6511;49.746;6.094;2023-04-24T12:06:08;11.90;99.90
12887;DHT22;6511;49.746;6.094;2023-04-24T12:08:34;12.00;99.90
12887;DHT22;6511;49.746;6.094;2023-04-24T12:11:00;11.70;99.90
12887;DHT22;6511;49.746;6.094;2023-04-24T12:13:26;11.40;99.90
12887;DHT22;6511;49.746;6.094;2023-04-24T12:15:51;11.90;99.90
12887;DHT22;6511;49.746;6.094;2023-04-24T12:18:17;11.80;99.90
12887;DHT22;6511;49.746;6.094;2023-04-24T12:20:42;11.80;99.90
12887;DHT22;6511;49.746;6.094;2023-04-24T12:23:08;12.00;99.90
12887;DHT22;6511;49.746;6.094;2023-04-24T12:25:34;12.50;99.90
12887;DHT22;6511;49.746;6.094;2023-04-24T12:30:28;12.30;99.90
12887;DHT22;6511;49.746;6.094;2023-04-24T12:32:54;12.50;99.90
12887;DHT22;6511;49.746;6.094;2023-04-24T12:35:22;12.50;99.90
12887;DHT22;6511;49.746;6.094;2023-04-24T12:37:48;12.10;99.90
12887;DHT22;6511;49.746;6.094;2023-04-24T12:40:14;12.70;99.90
12887;DHT22;6511;49.746;6.094;2023-04-24T12:42:44;12.80;99.90
12887;DHT22;6511;49.746;6.094;2023-04-24T12:45:10;12.80;99.90
12887;DHT22;6511;49.746;6.094;2023-04-24T12:47:37;13.50;99.90
12887;DHT22;6511;49.746;6.094;2023-04-24T12:50:03;13.50;99.90
12887;DHT22;6511;49.746;6.094;2023-04-24T12:52:29;13.40;99.90
12887;DHT22;6511;49.746;6.094;2023-04-24T12:54:59;13.10;99.90
12887;DHT22;6511;49.746;6.094;2023-04-24T12:57:25;13.60;99.90
12887;DHT22;6511;49.746;6.094;2023-04-24T12:59:53;13.50;99.90
12887;DHT22;6511;49.746;6.094;2023-04-24T13:02:18;13.50;99.90
12887;DHT22;6511;49.746;6.094;2023-04-24T13:04:44;13.50;99.90
12887;DHT22;6511;49.746;6.094;2023-04-24T13:07:11;13.80;99.90
12887;DHT22;6511;49.746;6.094;2023-04-24T13:09:37;13.40;99.90
12887;DHT22;6511;49.746;6.094;2023-04-24T13:12:03;13.40;99.90
12887;DHT22;6511;49.746;6.094;2023-04-24T13:14:31;13.10;99.90
12887;DHT22;6511;49.746;6.094;2023-04-24T13:16:56;12.90;99.90
12887;DHT22;6511;49.746;6.094;2023-04-24T13:19:23;13.30;99.90
12887;DHT22;6511;49.746;6.094;2023-04-24T13:21:49;13.30;99.90
12887;DHT22;6511;49.746;6.094;2023-04-24T13:24:15;13.40;99.90
12887;DHT22;6511;49.746;6.094;2023-04-24T13:26:41;13.10;99.90
12887;DHT22;6511;49.746;6.094;2023-04-24T13:29:06;13.50;99.90
12887;DHT22;6511;49.746;6.094;2023-04-24T13:31:32;14.10;99.90
12887;DHT22;6511;49.746;6.094;2023-04-24T13:33:57;13.80;99.90
12887;DHT22;6511;49.746;6.094;2023-04-24T13:36:23;13.50;99.90
12887;DHT22;6511;49.746;6.094;2023-04-24T13:38:48;13.40;99.90
12887;DHT22;6511;49.746;6.094;2023-04-24T13:41:14;13.30;99.90
12887;DHT22;6511;49.746;6.094;2023-04-24T13:43:39;13.30;99.90
12887;DHT22;6511;49.746;6.094;2023-04-24T13:46:07;13.10;99.90
12887;DHT22;6511;49.746;6.094;2023-04-24T13:48:33;12.90;99.90
12887;DHT22;6511;49.746;6.094;2023-04-24T13:50:58;12.70;99.90
12887;DHT22;6511;49.746;6.094;2023-04-24T13:53:24;12.50;99.90
12887;DHT22;6511;49.746;6.094;2023-04-24T13:55:49;12.20;99.90
12887;DHT22;6511;49.746;6.094;2023-04-24T13:58:15;12.20;99.90
12887;DHT22;6511;49.746;6.094;2023-04-24T14:00:40;12.10;99.90
12887;DHT22;6511;49.746;6.094;2023-04-24T14:03:05;11.80;99.90
12887;DHT22;6511;49.746;6.094;2023-04-24T14:05:31;11.70;99.90
12887;DHT22;6511;49.746;6.094;2023-04-24T14:07:56;11.60;99.90
12887;DHT22;6511;49.746;6.094;2023-04-24T14:10:22;11.20;99.90
12887;DHT22;6511;49.746;6.094;2023-04-24T14:12:47;11.00;99.90
12887;DHT22;6511;49.746;6.094;2023-04-24T14:15:13;11.00;99.90
12887;DHT22;6511;49.746;6.094;2023-04-24T14:17:39;11.50;99.90
12887;DHT22;6511;49.746;6.094;2023-04-24T14:20:05;11.40;99.90
12887;DHT22;6511;49.746;6.094;2023-04-24T14:22:30;11.40;99.90
12887;DHT22;6511;49.746;6.094;2023-04-24T14:24:56;11.90;99.90
12887;DHT22;6511;49.746;6.094;2023-04-24T14:27:21;12.40;99.90
12887;DHT22;6511;49.746;6.094;2023-04-24T14:29:47;12.80;99.90
12887;DHT22;6511;49.746;6.094;2023-04-24T14:32:12;12.70;99.90
12887;DHT22;6511;49.746;6.094;2023-04-24T14:34:40;12.20;99.90
12887;DHT22;6511;49.746;6.094;2023-04-24T14:37:05;12.40;99.90
12887;DHT22;6511;49.746;6.094;2023-04-24T14:39:31;12.40;99.90
12887;DHT22;6511;49.746;6.094;2023-04-24T14:41:56;12.20;99.90
12887;DHT22;6511;49.746;6.094;2023-04-24T14:44:22;12.10;99.90
12887;DHT22;6511;49.746;6.094;2023-04-24T14:46:48;12.10;99.90
12887;DHT22;6511;49.746;6.094;2023-04-24T14:49:13;12.00;99.90
12887;DHT22;6511;49.746;6.094;2023-04-24T14:51:39;11.80;99.90
12887;DHT22;6511;49.746;6.094;2023-04-24T14:54:06;11.50;99.90
12887;DHT22;6511;49.746;6.094;2023-04-24T14:56:31;11.40;99.90
12887;DHT22;6511;49.746;6.094;2023-04-24T14:58:57;11.50;99.90
12887;DHT22;6511;49.746;6.094;2023-04-24T15:01:22;11.50;99.90
12887;DHT22;6511;49.746;6.094;2023-04-24T15:03:49;11.30;99.90
12887;DHT22;6511;49.746;6.094;2023-04-24T15:06:15;11.10;99.90
12887;DHT22;6511;49.746;6.094;2023-04-24T15:08:40;10.90;99.90
12887;DHT22;6511;49.746;6.094;2023-04-24T15:11:06;11.00;99.90
12887;DHT22;6511;49.746;6.094;2023-04-24T15:13:31;10.90;99.90
12887;DHT22;6511;49.746;6.094;2023-04-24T15:15:57;10.50;99.90
12887;DHT22;6511;49.746;6.094;2023-04-24T15:18:22;10.50;99.90
12887;DHT22;6511;49.746;6.094;2023-04-24T15:20:48;10.40;99.90
12887;DHT22;6511;49.746;6.094;2023-04-24T15:23:13;11.10;99.90
12887;DHT22;6511;49.746;6.094;2023-04-24T15:25:39;11.50;99.90
12887;DHT22;6511;49.746;6.094;2023-04-24T15:28:05;11.70;99.90
12887;DHT22;6511;49.746;6.094;2023-04-24T15:30:31;11.80;99.90
12887;DHT22;6511;49.746;6.094;2023-04-24T15:32:56;11.90;99.90
12887;DHT22;6511;49.746;6.094;2023-04-24T15:35:22;11.90;99.90
12887;DHT22;6511;49.746;6.094;2023-04-24T15:37:48;11.90;99.90
12887;DHT22;6511;49.746;6.094;2023-04-24T15:40:13;11.70;99.90
12887;DHT22;6511;49.746;6.094;2023-04-24T15:42:41;11.80;99.90
12887;DHT22;6511;49.746;6.094;2023-04-24T15:45:07;11.70;99.90
12887;DHT22;6511;49.746;6.094;2023-04-24T15:47:33;11.80;99.90
12887;DHT22;6511;49.746;6.094;2023-04-24T15:50:02;11.90;99.90
12887;DHT22;6511;49.746;6.094;2023-04-24T15:52:28;11.80;99.90
12887;DHT22;6511;49.746;6.094;2023-04-24T15:54:53;11.70;99.90
12887;DHT22;6511;49.746;6.094;2023-04-24T15:57:19;11.60;99.90
12887;DHT22;6511;49.746;6.094;2023-04-24T15:59:45;11.70;99.90